sensor_id;sensor_type;location;lat;lon;timestamp;P1;durP1;ratioP1;P2;durP2;ratioP2
62927;SDS011;51070;52.236;-0.892;2022-12-07T00:02:15;9.80;;;5.60;;
62927;SDS011;51070;52.236;-0.892;2022-12-07T00:04:40;14.40;;;7.10;;
62927;SDS011;51070;52.236;-0.892;2022-12-07T00:07:06;12.20;;;6.20;;
62927;SDS011;51070;52.236;-0.892;2022-12-07T00:09:31;11.40;;;6.00;;
62927;SDS011;51070;52.236;-0.892;2022-12-07T00:11:56;10.90;;;6.10;;
62927;SDS011;51070;52.236;-0.892;2022-12-07T00:14:22;9.70;;;5.40;;
62927;SDS011;51070;52.236;-0.892;2022-12-07T00:16:48;10.80;;;6.10;;
62927;SDS011;51070;52.236;-0.892;2022-12-07T00:19:15;12.40;;;6.70;;
62927;SDS011;51070;52.236;-0.892;2022-12-07T00:21:40;11.30;;;6.30;;
62927;SDS011;51070;52.236;-0.892;2022-12-07T00:24:06;10.00;;;6.10;;
62927;SDS011;51070;52.236;-0.892;2022-12-07T00:26:33;12.00;;;6.80;;
62927;SDS011;51070;52.236;-0.892;2022-12-07T00:29:02;14.50;;;6.10;;
62927;SDS011;51070;52.236;-0.892;2022-12-07T00:31:31;10.40;;;5.30;;
62927;SDS011;51070;52.236;-0.892;2022-12-07T00:34:00;9.20;;;4.50;;
62927;SDS011;51070;52.236;-0.892;2022-12-07T00:36:26;9.70;;;5.70;;
62927;SDS011;51070;52.236;-0.892;2022-12-07T00:38:51;8.60;;;4.80;;
62927;SDS011;51070;52.236;-0.892;2022-12-07T00:41:19;7.00;;;4.30;;
62927;SDS011;51070;52.236;-0.892;2022-12-07T00:43:46;11.40;;;4.60;;
62927;SDS011;51070;52.236;-0.892;2022-12-07T00:46:13;10.40;;;5.30;;
62927;SDS011;51070;52.236;-0.892;2022-12-07T00:48:39;17.90;;;5.80;;
62927;SDS011;51070;52.236;-0.892;2022-12-07T00:51:06;11.80;;;6.20;;
62927;SDS011;51070;52.236;-0.892;2022-12-07T00:53:36;12.00;;;6.60;;
62927;SDS011;51070;52.236;-0.892;2022-12-07T00:56:05;15.00;;;6.30;;
62927;SDS011;51070;52.236;-0.892;2022-12-07T00:58:31;13.60;;;6.10;;
62927;SDS011;51070;52.236;-0.892;2022-12-07T01:00:59;16.40;;;6.30;;
62927;SDS011;51070;52.236;-0.892;2022-12-07T01:03:26;9.30;;;5.30;;
62927;SDS011;51070;52.236;-0.892;2022-12-07T01:05:52;13.90;;;5.50;;
62927;SDS011;51070;52.236;-0.892;2022-12-07T01:08:19;7.90;;;4.30;;
62927;SDS011;51070;52.236;-0.892;2022-12-07T01:10:45;8.10;;;4.80;;
62927;SDS011;51070;52.236;-0.892;2022-12-07T01:13:11;7.90;;;4.60;;
62927;SDS011;51070;52.236;-0.892;2022-12-07T01:15:41;10.60;;;5.00;;
62927;SDS011;51070;52.236;-0.892;2022-12-07T01:18:08;9.30;;;5.10;;
62927;SDS011;51070;52.236;-0.892;2022-12-07T01:20:33;14.40;;;6.50;;
62927;SDS011;51070;52.236;-0.892;2022-12-07T01:22:59;12.30;;;5.90;;
62927;SDS011;51070;52.236;-0.892;2022-12-07T01:25:24;13.60;;;6.70;;
62927;SDS011;51070;52.236;-0.892;2022-12-07T01:27:50;10.60;;;6.10;;
62927;SDS011;51070;52.236;-0.892;2022-12-07T01:30:15;10.10;;;6.20;;
62927;SDS011;51070;52.236;-0.892;2022-12-07T01:32:41;9.50;;;5.40;;
62927;SDS011;51070;52.236;-0.892;2022-12-07T01:35:06;12.50;;;5.70;;
62927;SDS011;51070;52.236;-0.892;2022-12-07T01:37:35;9.10;;;5.60;;
62927;SDS011;51070;52.236;-0.892;2022-12-07T01:40:02;9.30;;;5.20;;
62927;SDS011;51070;52.236;-0.892;2022-12-07T01:42:29;8.40;;;5.00;;
62927;SDS011;51070;52.236;-0.892;2022-12-07T01:47:57;13.30;;;6.20;;
62927;SDS011;51070;52.236;-0.892;2022-12-07T01:50:24;7.40;;;5.10;;
62927;SDS011;51070;52.236;-0.892;2022-12-07T01:52:53;11.70;;;6.90;;
62927;SDS011;51070;52.236;-0.892;2022-12-07T01:55:21;12.90;;;7.00;;
62927;SDS011;51070;52.236;-0.892;2022-12-07T01:57:48;10.50;;;6.40;;
62927;SDS011;51070;52.236;-0.892;2022-12-07T02:00:17;10.50;;;7.20;;
62927;SDS011;51070;52.236;-0.892;2022-12-07T02:03:06;11.00;;;6.80;;
62927;SDS011;51070;52.236;-0.892;2022-12-07T02:05:37;9.50;;;6.00;;
62927;SDS011;51070;52.236;-0.892;2022-12-07T02:08:05;8.30;;;5.60;;
62927;SDS011;51070;52.236;-0.892;2022-12-07T02:10:31;12.30;;;6.00;;
62927;SDS011;51070;52.236;-0.892;2022-12-07T02:13:18;13.00;;;6.90;;
62927;SDS011;51070;52.236;-0.892;2022-12-07T02:29:49;9.10;;;6.50;;
62927;SDS011;51070;52.236;-0.892;2022-12-07T02:35:55;11.00;;;7.30;;
62927;SDS011;51070;52.236;-0.892;2022-12-07T02:38:40;10.00;;;5.90;;
62927;SDS011;51070;52.236;-0.892;2022-12-07T02:41:13;10.60;;;5.70;;
62927;SDS011;51070;52.236;-0.892;2022-12-07T02:43:50;11.10;;;6.00;;
62927;SDS011;51070;52.236;-0.892;2022-12-07T02:46:23;10.30;;;6.30;;
62927;SDS011;51070;52.236;-0.892;2022-12-07T02:48:54;10.30;;;5.80;;
62927;SDS011;51070;52.236;-0.892;2022-12-07T02:51:21;8.60;;;5.50;;
62927;SDS011;51070;52.236;-0.892;2022-12-07T02:53:47;8.50;;;5.10;;
62927;SDS011;51070;52.236;-0.892;2022-12-07T03:07:55;13.00;;;6.30;;
62927;SDS011;51070;52.236;-0.892;2022-12-07T03:19:00;11.40;;;5.40;;
62927;SDS011;51070;52.236;-0.892;2022-12-07T03:21:36;7.60;;;5.30;;
62927;SDS011;51070;52.236;-0.892;2022-12-07T03:24:26;11.90;;;5.20;;
62927;SDS011;51070;52.236;-0.892;2022-12-07T03:27:05;10.30;;;5.50;;
62927;SDS011;51070;52.236;-0.892;2022-12-07T03:29:38;12.60;;;6.00;;
62927;SDS011;51070;52.236;-0.892;2022-12-07T03:32:31;11.70;;;6.50;;
62927;SDS011;51070;52.236;-0.892;2022-12-07T03:35:11;10.80;;;5.90;;
62927;SDS011;51070;52.236;-0.892;2022-12-07T03:37:47;11.80;;;6.10;;
62927;SDS011;51070;52.236;-0.892;2022-12-07T03:42:47;11.50;;;5.80;;
62927;SDS011;51070;52.236;-0.892;2022-12-07T03:45:14;9.70;;;5.70;;
62927;SDS011;51070;52.236;-0.892;2022-12-07T03:47:48;7.80;;;5.20;;
62927;SDS011;51070;52.236;-0.892;2022-12-07T03:50:26;9.30;;;5.70;;
62927;SDS011;51070;52.236;-0.892;2022-12-07T03:53:15;9.70;;;4.90;;
62927;SDS011;51070;52.236;-0.892;2022-12-07T03:55:45;6.60;;;5.00;;
62927;SDS011;51070;52.236;-0.892;2022-12-07T03:58:15;10.10;;;5.10;;
62927;SDS011;51070;52.236;-0.892;2022-12-07T04:00:44;10.90;;;5.20;;
62927;SDS011;51070;52.236;-0.892;2022-12-07T04:03:10;13.40;;;5.40;;
62927;SDS011;51070;52.236;-0.892;2022-12-07T04:05:36;12.20;;;5.60;;
62927;SDS011;51070;52.236;-0.892;2022-12-07T04:08:03;10.20;;;5.70;;
62927;SDS011;51070;52.236;-0.892;2022-12-07T04:10:29;16.40;;;6.50;;
62927;SDS011;51070;52.236;-0.892;2022-12-07T04:12:54;12.30;;;5.60;;
62927;SDS011;51070;52.236;-0.892;2022-12-07T04:15:20;10.40;;;6.20;;
62927;SDS011;51070;52.236;-0.892;2022-12-07T04:17:45;12.20;;;5.60;;
62927;SDS011;51070;52.236;-0.892;2022-12-07T04:20:11;8.40;;;5.40;;
62927;SDS011;51070;52.236;-0.892;2022-12-07T04:22:37;13.20;;;6.50;;
62927;SDS011;51070;52.236;-0.892;2022-12-07T04:25:03;13.00;;;6.50;;
62927;SDS011;51070;52.236;-0.892;2022-12-07T04:27:29;11.70;;;5.00;;
62927;SDS011;51070;52.236;-0.892;2022-12-07T04:29:54;9.20;;;5.40;;
62927;SDS011;51070;52.236;-0.892;2022-12-07T04:32:20;9.30;;;5.60;;
62927;SDS011;51070;52.236;-0.892;2022-12-07T04:34:47;11.10;;;7.20;;
62927;SDS011;51070;52.236;-0.892;2022-12-07T04:37:12;14.60;;;6.90;;
62927;SDS011;51070;52.236;-0.892;2022-12-07T04:39:37;8.90;;;6.00;;
62927;SDS011;51070;52.236;-0.892;2022-12-07T04:42:03;16.80;;;7.30;;
62927;SDS011;51070;52.236;-0.892;2022-12-07T04:44:29;11.90;;;6.90;;
62927;SDS011;51070;52.236;-0.892;2022-12-07T04:46:55;7.10;;;5.30;;
62927;SDS011;51070;52.236;-0.892;2022-12-07T04:49:22;9.40;;;6.20;;
62927;SDS011;51070;52.236;-0.892;2022-12-07T04:51:48;12.90;;;5.90;;
62927;SDS011;51070;52.236;-0.892;2022-12-07T04:54:14;10.40;;;6.20;;
62927;SDS011;51070;52.236;-0.892;2022-12-07T04:56:40;10.00;;;6.10;;
62927;SDS011;51070;52.236;-0.892;2022-12-07T04:59:07;7.60;;;4.60;;
62927;SDS011;51070;52.236;-0.892;2022-12-07T05:01:32;6.70;;;4.40;;
62927;SDS011;51070;52.236;-0.892;2022-12-07T05:03:58;11.70;;;6.60;;
62927;SDS011;51070;52.236;-0.892;2022-12-07T05:06:24;12.10;;;7.40;;
62927;SDS011;51070;52.236;-0.892;2022-12-07T05:08:50;11.00;;;6.80;;
62927;SDS011;51070;52.236;-0.892;2022-12-07T05:11:15;10.70;;;6.80;;
62927;SDS011;51070;52.236;-0.892;2022-12-07T05:14:01;9.00;;;6.30;;
62927;SDS011;51070;52.236;-0.892;2022-12-07T05:16:27;9.90;;;6.60;;
62927;SDS011;51070;52.236;-0.892;2022-12-07T05:18:53;12.70;;;6.00;;
62927;SDS011;51070;52.236;-0.892;2022-12-07T05:21:18;12.30;;;6.30;;
62927;SDS011;51070;52.236;-0.892;2022-12-07T05:23:44;12.00;;;5.90;;
62927;SDS011;51070;52.236;-0.892;2022-12-07T05:26:09;12.80;;;6.00;;
62927;SDS011;51070;52.236;-0.892;2022-12-07T05:28:34;9.60;;;6.40;;
62927;SDS011;51070;52.236;-0.892;2022-12-07T05:31:00;13.20;;;6.00;;
62927;SDS011;51070;52.236;-0.892;2022-12-07T05:33:26;11.20;;;7.00;;
62927;SDS011;51070;52.236;-0.892;2022-12-07T05:35:51;11.50;;;7.20;;
62927;SDS011;51070;52.236;-0.892;2022-12-07T05:38:16;11.10;;;7.20;;
62927;SDS011;51070;52.236;-0.892;2022-12-07T05:40:42;15.80;;;7.40;;
62927;SDS011;51070;52.236;-0.892;2022-12-07T05:43:07;14.70;;;6.80;;
62927;SDS011;51070;52.236;-0.892;2022-12-07T05:45:33;10.80;;;7.10;;
62927;SDS011;51070;52.236;-0.892;2022-12-07T05:47:58;12.10;;;6.80;;
62927;SDS011;51070;52.236;-0.892;2022-12-07T05:50:23;14.20;;;6.10;;
62927;SDS011;51070;52.236;-0.892;2022-12-07T05:52:49;13.20;;;5.90;;
62927;SDS011;51070;52.236;-0.892;2022-12-07T05:55:15;11.50;;;5.90;;
62927;SDS011;51070;52.236;-0.892;2022-12-07T05:57:40;11.30;;;6.00;;
62927;SDS011;51070;52.236;-0.892;2022-12-07T06:00:25;14.40;;;6.90;;
62927;SDS011;51070;52.236;-0.892;2022-12-07T06:02:51;10.70;;;6.90;;
62927;SDS011;51070;52.236;-0.892;2022-12-07T06:05:16;12.30;;;7.10;;
62927;SDS011;51070;52.236;-0.892;2022-12-07T06:07:41;11.80;;;7.60;;
62927;SDS011;51070;52.236;-0.892;2022-12-07T06:10:07;13.00;;;7.30;;
62927;SDS011;51070;52.236;-0.892;2022-12-07T06:12:33;10.20;;;6.70;;
62927;SDS011;51070;52.236;-0.892;2022-12-07T06:14:58;13.40;;;6.50;;
62927;SDS011;51070;52.236;-0.892;2022-12-07T06:17:24;10.10;;;6.10;;
62927;SDS011;51070;52.236;-0.892;2022-12-07T06:19:49;11.00;;;6.80;;
62927;SDS011;51070;52.236;-0.892;2022-12-07T06:22:15;9.40;;;6.70;;
62927;SDS011;51070;52.236;-0.892;2022-12-07T06:24:41;9.00;;;5.20;;
62927;SDS011;51070;52.236;-0.892;2022-12-07T06:27:06;11.10;;;6.30;;
62927;SDS011;51070;52.236;-0.892;2022-12-07T06:29:32;11.20;;;5.90;;
62927;SDS011;51070;52.236;-0.892;2022-12-07T06:31:58;10.50;;;6.10;;
62927;SDS011;51070;52.236;-0.892;2022-12-07T06:34:24;12.70;;;7.50;;
62927;SDS011;51070;52.236;-0.892;2022-12-07T06:36:50;12.90;;;7.70;;
62927;SDS011;51070;52.236;-0.892;2022-12-07T06:39:19;13.30;;;8.40;;
62927;SDS011;51070;52.236;-0.892;2022-12-07T06:41:45;12.60;;;7.60;;
62927;SDS011;51070;52.236;-0.892;2022-12-07T06:44:11;14.10;;;7.40;;
62927;SDS011;51070;52.236;-0.892;2022-12-07T06:46:36;10.80;;;6.90;;
62927;SDS011;51070;52.236;-0.892;2022-12-07T06:49:02;9.40;;;5.60;;
62927;SDS011;51070;52.236;-0.892;2022-12-07T06:51:28;10.30;;;6.90;;
62927;SDS011;51070;52.236;-0.892;2022-12-07T06:53:54;10.10;;;6.30;;
62927;SDS011;51070;52.236;-0.892;2022-12-07T06:56:20;11.80;;;6.60;;
62927;SDS011;51070;52.236;-0.892;2022-12-07T06:58:45;12.40;;;7.30;;
62927;SDS011;51070;52.236;-0.892;2022-12-07T07:01:12;9.10;;;5.80;;
62927;SDS011;51070;52.236;-0.892;2022-12-07T07:03:39;14.40;;;7.50;;
62927;SDS011;51070;52.236;-0.892;2022-12-07T07:06:04;11.60;;;7.40;;
62927;SDS011;51070;52.236;-0.892;2022-12-07T07:08:32;13.00;;;8.10;;
62927;SDS011;51070;52.236;-0.892;2022-12-07T07:10:58;11.60;;;7.70;;
62927;SDS011;51070;52.236;-0.892;2022-12-07T07:13:23;14.40;;;8.20;;
62927;SDS011;51070;52.236;-0.892;2022-12-07T07:15:49;11.80;;;7.80;;
62927;SDS011;51070;52.236;-0.892;2022-12-07T07:18:14;13.60;;;8.40;;
62927;SDS011;51070;52.236;-0.892;2022-12-07T07:20:40;11.30;;;7.40;;
62927;SDS011;51070;52.236;-0.892;2022-12-07T07:23:05;11.60;;;6.60;;
62927;SDS011;51070;52.236;-0.892;2022-12-07T07:25:32;13.40;;;8.00;;
62927;SDS011;51070;52.236;-0.892;2022-12-07T07:27:58;13.10;;;6.80;;
62927;SDS011;51070;52.236;-0.892;2022-12-07T07:30:24;13.40;;;7.00;;
62927;SDS011;51070;52.236;-0.892;2022-12-07T07:32:50;10.30;;;6.60;;
62927;SDS011;51070;52.236;-0.892;2022-12-07T07:35:16;9.90;;;6.90;;
62927;SDS011;51070;52.236;-0.892;2022-12-07T07:37:41;11.40;;;7.20;;
62927;SDS011;51070;52.236;-0.892;2022-12-07T07:40:07;13.70;;;8.30;;
62927;SDS011;51070;52.236;-0.892;2022-12-07T07:42:34;12.30;;;8.30;;
62927;SDS011;51070;52.236;-0.892;2022-12-07T07:44:59;15.50;;;9.70;;
62927;SDS011;51070;52.236;-0.892;2022-12-07T07:47:25;19.00;;;8.30;;
62927;SDS011;51070;52.236;-0.892;2022-12-07T07:49:50;15.90;;;7.90;;
62927;SDS011;51070;52.236;-0.892;2022-12-07T07:52:15;9.90;;;6.10;;
62927;SDS011;51070;52.236;-0.892;2022-12-07T07:54:41;10.50;;;7.10;;
62927;SDS011;51070;52.236;-0.892;2022-12-07T07:57:06;15.00;;;8.20;;
62927;SDS011;51070;52.236;-0.892;2022-12-07T07:59:31;10.10;;;7.30;;
62927;SDS011;51070;52.236;-0.892;2022-12-07T08:01:57;14.90;;;8.10;;
62927;SDS011;51070;52.236;-0.892;2022-12-07T08:04:22;18.30;;;7.30;;
62927;SDS011;51070;52.236;-0.892;2022-12-07T08:06:48;14.90;;;7.90;;
62927;SDS011;51070;52.236;-0.892;2022-12-07T08:09:13;16.40;;;8.50;;
62927;SDS011;51070;52.236;-0.892;2022-12-07T08:11:39;16.60;;;8.80;;
62927;SDS011;51070;52.236;-0.892;2022-12-07T08:14:04;13.80;;;9.00;;
62927;SDS011;51070;52.236;-0.892;2022-12-07T08:16:30;16.00;;;9.30;;
62927;SDS011;51070;52.236;-0.892;2022-12-07T08:18:55;16.10;;;8.80;;
62927;SDS011;51070;52.236;-0.892;2022-12-07T08:21:21;16.60;;;9.20;;
62927;SDS011;51070;52.236;-0.892;2022-12-07T08:23:47;14.30;;;9.00;;
62927;SDS011;51070;52.236;-0.892;2022-12-07T08:26:13;20.60;;;8.70;;
62927;SDS011;51070;52.236;-0.892;2022-12-07T08:28:40;13.90;;;8.40;;
62927;SDS011;51070;52.236;-0.892;2022-12-07T08:31:07;12.50;;;7.30;;
62927;SDS011;51070;52.236;-0.892;2022-12-07T08:33:40;18.00;;;8.70;;
62927;SDS011;51070;52.236;-0.892;2022-12-07T08:36:08;10.40;;;6.90;;
62927;SDS011;51070;52.236;-0.892;2022-12-07T08:41:01;10.40;;;6.70;;
62927;SDS011;51070;52.236;-0.892;2022-12-07T08:43:27;12.50;;;7.50;;
62927;SDS011;51070;52.236;-0.892;2022-12-07T08:48:24;13.90;;;9.10;;
62927;SDS011;51070;52.236;-0.892;2022-12-07T08:50:50;12.50;;;8.60;;
62927;SDS011;51070;52.236;-0.892;2022-12-07T08:53:16;17.40;;;9.30;;
62927;SDS011;51070;52.236;-0.892;2022-12-07T08:55:43;12.70;;;8.60;;
62927;SDS011;51070;52.236;-0.892;2022-12-07T08:58:10;15.60;;;8.40;;
62927;SDS011;51070;52.236;-0.892;2022-12-07T09:00:35;15.70;;;9.20;;
62927;SDS011;51070;52.236;-0.892;2022-12-07T09:03:01;16.70;;;8.40;;
62927;SDS011;51070;52.236;-0.892;2022-12-07T09:05:26;12.00;;;7.30;;
62927;SDS011;51070;52.236;-0.892;2022-12-07T09:07:52;16.60;;;8.70;;
62927;SDS011;51070;52.236;-0.892;2022-12-07T09:10:24;16.60;;;8.40;;
62927;SDS011;51070;52.236;-0.892;2022-12-07T09:12:51;30.40;;;9.50;;
62927;SDS011;51070;52.236;-0.892;2022-12-07T09:15:16;18.30;;;8.10;;
62927;SDS011;51070;52.236;-0.892;2022-12-07T09:17:42;15.40;;;7.30;;
62927;SDS011;51070;52.236;-0.892;2022-12-07T09:20:07;19.80;;;7.80;;
62927;SDS011;51070;52.236;-0.892;2022-12-07T09:22:33;11.00;;;5.80;;
62927;SDS011;51070;52.236;-0.892;2022-12-07T09:24:59;14.90;;;8.20;;
62927;SDS011;51070;52.236;-0.892;2022-12-07T09:27:25;16.00;;;9.50;;
62927;SDS011;51070;52.236;-0.892;2022-12-07T09:29:51;16.70;;;8.30;;
62927;SDS011;51070;52.236;-0.892;2022-12-07T09:32:17;16.40;;;7.80;;
62927;SDS011;51070;52.236;-0.892;2022-12-07T09:34:42;14.30;;;8.30;;
62927;SDS011;51070;52.236;-0.892;2022-12-07T09:37:08;15.50;;;7.70;;
62927;SDS011;51070;52.236;-0.892;2022-12-07T09:39:33;12.50;;;7.00;;
62927;SDS011;51070;52.236;-0.892;2022-12-07T09:41:59;11.70;;;6.40;;
62927;SDS011;51070;52.236;-0.892;2022-12-07T09:44:29;10.60;;;6.10;;
62927;SDS011;51070;52.236;-0.892;2022-12-07T09:46:54;13.10;;;7.50;;
62927;SDS011;51070;52.236;-0.892;2022-12-07T09:49:22;11.70;;;5.40;;
62927;SDS011;51070;52.236;-0.892;2022-12-07T09:54:35;12.50;;;7.50;;
62927;SDS011;51070;52.236;-0.892;2022-12-07T09:57:05;14.80;;;7.30;;
62927;SDS011;51070;52.236;-0.892;2022-12-07T09:59:30;13.20;;;7.80;;
62927;SDS011;51070;52.236;-0.892;2022-12-07T10:01:56;16.60;;;7.40;;
62927;SDS011;51070;52.236;-0.892;2022-12-07T10:05:00;12.50;;;7.10;;
62927;SDS011;51070;52.236;-0.892;2022-12-07T10:07:26;12.70;;;6.30;;
62927;SDS011;51070;52.236;-0.892;2022-12-07T10:09:52;11.00;;;5.90;;
62927;SDS011;51070;52.236;-0.892;2022-12-07T10:12:17;10.10;;;6.60;;
62927;SDS011;51070;52.236;-0.892;2022-12-07T10:15:01;8.90;;;6.40;;
62927;SDS011;51070;52.236;-0.892;2022-12-07T10:17:36;13.80;;;7.50;;
62927;SDS011;51070;52.236;-0.892;2022-12-07T10:22:36;13.90;;;8.80;;
62927;SDS011;51070;52.236;-0.892;2022-12-07T10:25:09;11.60;;;7.50;;
62927;SDS011;51070;52.236;-0.892;2022-12-07T10:27:56;9.80;;;6.30;;
62927;SDS011;51070;52.236;-0.892;2022-12-07T10:32:49;6.60;;;4.20;;
62927;SDS011;51070;52.236;-0.892;2022-12-07T10:37:53;8.00;;;4.60;;
62927;SDS011;51070;52.236;-0.892;2022-12-07T10:40:34;10.80;;;5.10;;
62927;SDS011;51070;52.236;-0.892;2022-12-07T10:43:05;10.70;;;4.60;;
62927;SDS011;51070;52.236;-0.892;2022-12-07T10:45:41;8.90;;;4.60;;
62927;SDS011;51070;52.236;-0.892;2022-12-07T10:48:22;7.50;;;4.00;;
62927;SDS011;51070;52.236;-0.892;2022-12-07T10:53:35;8.30;;;4.40;;
62927;SDS011;51070;52.236;-0.892;2022-12-07T11:01:46;12.00;;;4.70;;
62927;SDS011;51070;52.236;-0.892;2022-12-07T11:10:05;9.00;;;4.90;;
62927;SDS011;51070;52.236;-0.892;2022-12-07T11:15:18;11.00;;;4.90;;
62927;SDS011;51070;52.236;-0.892;2022-12-07T11:18:14;5.50;;;2.60;;
62927;SDS011;51070;52.236;-0.892;2022-12-07T11:20:58;8.10;;;4.50;;
62927;SDS011;51070;52.236;-0.892;2022-12-07T11:26:29;8.10;;;3.90;;
62927;SDS011;51070;52.236;-0.892;2022-12-07T11:35:16;8.00;;;3.50;;
62927;SDS011;51070;52.236;-0.892;2022-12-07T11:37:47;9.70;;;4.40;;
62927;SDS011;51070;52.236;-0.892;2022-12-07T11:45:27;7.00;;;2.70;;
62927;SDS011;51070;52.236;-0.892;2022-12-07T11:50:36;6.40;;;3.10;;
62927;SDS011;51070;52.236;-0.892;2022-12-07T11:56:15;5.50;;;3.50;;
62927;SDS011;51070;52.236;-0.892;2022-12-07T11:58:49;8.60;;;3.60;;
62927;SDS011;51070;52.236;-0.892;2022-12-07T12:06:39;7.00;;;2.90;;
62927;SDS011;51070;52.236;-0.892;2022-12-07T12:09:20;8.60;;;3.30;;
62927;SDS011;51070;52.236;-0.892;2022-12-07T12:25:40;6.80;;;3.20;;
62927;SDS011;51070;52.236;-0.892;2022-12-07T12:28:56;10.30;;;3.90;;
62927;SDS011;51070;52.236;-0.892;2022-12-07T12:33:49;5.30;;;2.90;;
62927;SDS011;51070;52.236;-0.892;2022-12-07T12:46:52;6.50;;;2.80;;
62927;SDS011;51070;52.236;-0.892;2022-12-07T12:51:50;4.40;;;2.90;;
62927;SDS011;51070;52.236;-0.892;2022-12-07T12:54:23;9.60;;;3.60;;
62927;SDS011;51070;52.236;-0.892;2022-12-07T13:01:49;7.70;;;3.40;;
62927;SDS011;51070;52.236;-0.892;2022-12-07T13:06:54;6.80;;;2.60;;
62927;SDS011;51070;52.236;-0.892;2022-12-07T13:09:21;7.40;;;3.90;;
62927;SDS011;51070;52.236;-0.892;2022-12-07T13:11:49;9.30;;;4.50;;
62927;SDS011;51070;52.236;-0.892;2022-12-07T13:17:05;14.40;;;6.10;;
62927;SDS011;51070;52.236;-0.892;2022-12-07T13:24:56;12.90;;;4.10;;
62927;SDS011;51070;52.236;-0.892;2022-12-07T13:27:37;7.20;;;3.00;;
62927;SDS011;51070;52.236;-0.892;2022-12-07T13:30:18;6.20;;;3.00;;
62927;SDS011;51070;52.236;-0.892;2022-12-07T13:32:52;12.50;;;6.90;;
62927;SDS011;51070;52.236;-0.892;2022-12-07T13:35:37;8.10;;;3.00;;
62927;SDS011;51070;52.236;-0.892;2022-12-07T13:38:13;9.90;;;3.60;;
62927;SDS011;51070;52.236;-0.892;2022-12-07T13:40:59;10.60;;;3.80;;
62927;SDS011;51070;52.236;-0.892;2022-12-07T13:43:28;8.40;;;4.00;;
62927;SDS011;51070;52.236;-0.892;2022-12-07T13:45:57;8.00;;;3.50;;
62927;SDS011;51070;52.236;-0.892;2022-12-07T13:48:27;15.20;;;6.30;;
62927;SDS011;51070;52.236;-0.892;2022-12-07T13:50:58;6.10;;;3.30;;
62927;SDS011;51070;52.236;-0.892;2022-12-07T13:53:26;9.20;;;4.00;;
62927;SDS011;51070;52.236;-0.892;2022-12-07T13:55:59;18.10;;;7.70;;
62927;SDS011;51070;52.236;-0.892;2022-12-07T13:58:26;21.10;;;10.20;;
62927;SDS011;51070;52.236;-0.892;2022-12-07T14:00:54;20.70;;;10.40;;
62927;SDS011;51070;52.236;-0.892;2022-12-07T14:03:31;20.50;;;9.80;;
62927;SDS011;51070;52.236;-0.892;2022-12-07T14:08:31;8.90;;;3.80;;
62927;SDS011;51070;52.236;-0.892;2022-12-07T14:10:57;5.90;;;3.40;;
62927;SDS011;51070;52.236;-0.892;2022-12-07T14:13:28;9.10;;;2.60;;
62927;SDS011;51070;52.236;-0.892;2022-12-07T14:15:59;6.50;;;2.90;;
62927;SDS011;51070;52.236;-0.892;2022-12-07T14:18:39;3.70;;;2.50;;
62927;SDS011;51070;52.236;-0.892;2022-12-07T14:23:33;13.40;;;3.80;;
62927;SDS011;51070;52.236;-0.892;2022-12-07T14:26:18;7.70;;;3.40;;
62927;SDS011;51070;52.236;-0.892;2022-12-07T14:28:46;9.30;;;4.00;;
62927;SDS011;51070;52.236;-0.892;2022-12-07T14:31:13;11.70;;;5.00;;
62927;SDS011;51070;52.236;-0.892;2022-12-07T14:33:41;12.70;;;6.90;;
62927;SDS011;51070;52.236;-0.892;2022-12-07T14:36:13;10.80;;;5.20;;
62927;SDS011;51070;52.236;-0.892;2022-12-07T14:38:40;7.10;;;3.30;;
62927;SDS011;51070;52.236;-0.892;2022-12-07T14:41:06;8.10;;;4.00;;
62927;SDS011;51070;52.236;-0.892;2022-12-07T14:43:58;6.90;;;2.40;;
62927;SDS011;51070;52.236;-0.892;2022-12-07T14:46:25;5.80;;;3.00;;
62927;SDS011;51070;52.236;-0.892;2022-12-07T14:48:50;7.20;;;3.30;;
62927;SDS011;51070;52.236;-0.892;2022-12-07T14:51:16;8.00;;;3.70;;
62927;SDS011;51070;52.236;-0.892;2022-12-07T14:53:50;26.80;;;12.80;;
62927;SDS011;51070;52.236;-0.892;2022-12-07T14:56:17;37.40;;;17.70;;
62927;SDS011;51070;52.236;-0.892;2022-12-07T14:58:42;47.90;;;21.80;;
62927;SDS011;51070;52.236;-0.892;2022-12-07T15:01:08;63.70;;;27.50;;
62927;SDS011;51070;52.236;-0.892;2022-12-07T15:03:33;39.20;;;19.50;;
62927;SDS011;51070;52.236;-0.892;2022-12-07T15:06:00;27.00;;;11.60;;
62927;SDS011;51070;52.236;-0.892;2022-12-07T15:08:25;16.00;;;7.00;;
62927;SDS011;51070;52.236;-0.892;2022-12-07T15:10:51;19.80;;;8.60;;
62927;SDS011;51070;52.236;-0.892;2022-12-07T15:13:17;16.50;;;7.30;;
62927;SDS011;51070;52.236;-0.892;2022-12-07T15:16:00;23.30;;;9.20;;
62927;SDS011;51070;52.236;-0.892;2022-12-07T15:18:26;27.70;;;14.40;;
62927;SDS011;51070;52.236;-0.892;2022-12-07T15:20:51;27.40;;;14.40;;
62927;SDS011;51070;52.236;-0.892;2022-12-07T15:23:16;11.40;;;6.30;;
62927;SDS011;51070;52.236;-0.892;2022-12-07T15:25:43;10.90;;;5.30;;
62927;SDS011;51070;52.236;-0.892;2022-12-07T15:28:10;6.30;;;3.80;;
62927;SDS011;51070;52.236;-0.892;2022-12-07T15:30:39;7.90;;;4.70;;
62927;SDS011;51070;52.236;-0.892;2022-12-07T15:33:05;10.10;;;4.90;;
62927;SDS011;51070;52.236;-0.892;2022-12-07T15:35:31;6.30;;;3.90;;
62927;SDS011;51070;52.236;-0.892;2022-12-07T15:37:56;7.90;;;4.60;;
62927;SDS011;51070;52.236;-0.892;2022-12-07T15:40:22;14.20;;;4.70;;
62927;SDS011;51070;52.236;-0.892;2022-12-07T15:42:47;8.60;;;4.20;;
62927;SDS011;51070;52.236;-0.892;2022-12-07T15:45:12;6.40;;;3.80;;
62927;SDS011;51070;52.236;-0.892;2022-12-07T15:47:42;6.70;;;3.30;;
62927;SDS011;51070;52.236;-0.892;2022-12-07T15:50:13;7.40;;;3.80;;
62927;SDS011;51070;52.236;-0.892;2022-12-07T15:52:40;7.80;;;4.10;;
62927;SDS011;51070;52.236;-0.892;2022-12-07T15:55:06;9.50;;;4.00;;
62927;SDS011;51070;52.236;-0.892;2022-12-07T15:57:32;10.20;;;4.60;;
62927;SDS011;51070;52.236;-0.892;2022-12-07T16:00:00;9.50;;;4.10;;
62927;SDS011;51070;52.236;-0.892;2022-12-07T16:02:25;6.90;;;3.70;;
62927;SDS011;51070;52.236;-0.892;2022-12-07T16:04:51;11.60;;;4.40;;
62927;SDS011;51070;52.236;-0.892;2022-12-07T16:07:17;8.80;;;5.30;;
62927;SDS011;51070;52.236;-0.892;2022-12-07T16:09:44;7.60;;;4.20;;
62927;SDS011;51070;52.236;-0.892;2022-12-07T16:12:11;9.30;;;4.60;;
62927;SDS011;51070;52.236;-0.892;2022-12-07T16:14:38;11.00;;;5.50;;
62927;SDS011;51070;52.236;-0.892;2022-12-07T16:17:05;17.20;;;9.00;;
62927;SDS011;51070;52.236;-0.892;2022-12-07T16:19:31;24.70;;;11.70;;
62927;SDS011;51070;52.236;-0.892;2022-12-07T16:21:57;18.70;;;10.70;;
62927;SDS011;51070;52.236;-0.892;2022-12-07T16:24:24;15.20;;;7.70;;
62927;SDS011;51070;52.236;-0.892;2022-12-07T16:26:50;11.80;;;5.30;;
62927;SDS011;51070;52.236;-0.892;2022-12-07T16:29:15;12.00;;;6.50;;
62927;SDS011;51070;52.236;-0.892;2022-12-07T16:31:42;10.50;;;6.20;;
62927;SDS011;51070;52.236;-0.892;2022-12-07T16:34:08;12.80;;;7.10;;
62927;SDS011;51070;52.236;-0.892;2022-12-07T16:36:34;10.80;;;5.60;;
62927;SDS011;51070;52.236;-0.892;2022-12-07T16:38:59;11.80;;;6.00;;
62927;SDS011;51070;52.236;-0.892;2022-12-07T16:41:25;14.70;;;7.40;;
62927;SDS011;51070;52.236;-0.892;2022-12-07T16:43:51;14.30;;;7.20;;
62927;SDS011;51070;52.236;-0.892;2022-12-07T16:46:16;14.80;;;7.50;;
62927;SDS011;51070;52.236;-0.892;2022-12-07T16:48:42;8.00;;;5.20;;
62927;SDS011;51070;52.236;-0.892;2022-12-07T16:51:09;10.30;;;6.40;;
62927;SDS011;51070;52.236;-0.892;2022-12-07T16:53:36;29.50;;;15.30;;
62927;SDS011;51070;52.236;-0.892;2022-12-07T16:56:03;22.00;;;11.50;;
62927;SDS011;51070;52.236;-0.892;2022-12-07T16:58:34;16.00;;;8.20;;
62927;SDS011;51070;52.236;-0.892;2022-12-07T17:00:59;9.30;;;5.80;;
62927;SDS011;51070;52.236;-0.892;2022-12-07T17:03:37;13.00;;;6.70;;
62927;SDS011;51070;52.236;-0.892;2022-12-07T17:06:02;11.40;;;7.50;;